createdAt,value
2022-10-05T00:00:46.072Z,11.63
2022-10-05T00:02:52.659Z,11.59
2022-10-05T00:04:57.431Z,11.58
2022-10-05T00:07:20.202Z,11.54
2022-10-05T00:09:22.692Z,11.60
2022-10-05T00:11:24.795Z,11.57
2022-10-05T00:13:29.917Z,11.46
2022-10-05T00:15:32.305Z,11.40
2022-10-05T00:17:35.386Z,11.45
2022-10-05T00:19:39.393Z,11.42
2022-10-05T00:21:41.418Z,11.36
2022-10-05T00:23:43.520Z,11.36
2022-10-05T00:25:46.263Z,11.37
2022-10-05T00:27:56.912Z,11.32
2022-10-05T00:30:02.677Z,11.24
2022-10-05T00:32:04.918Z,11.19
2022-10-05T00:34:07.229Z,11.14
2022-10-05T00:36:09.501Z,11.16
2022-10-05T00:38:11.538Z,11.17
2022-10-05T00:40:31.786Z,11.11
2022-10-05T00:42:43.110Z,11.19
2022-10-05T00:44:55.174Z,11.25
2022-10-05T00:47:04.044Z,11.31
2022-10-05T00:49:14.523Z,11.46
2022-10-05T00:51:36.643Z,11.47
2022-10-05T00:54:03.498Z,11.50
2022-10-05T00:56:25.891Z,11.46
2022-10-05T00:58:55.534Z,11.48
2022-10-05T01:01:15.493Z,11.51
2022-10-05T01:03:38.325Z,11.55
2022-10-05T01:05:52.173Z,11.59
2022-10-05T01:08:21.694Z,11.56
2022-10-05T01:10:34.437Z,11.51
2022-10-05T01:12:59.196Z,11.50
2022-10-05T01:15:04.692Z,11.53
2022-10-05T01:17:38.076Z,11.41
2022-10-05T01:20:09.987Z,11.31
2022-10-05T01:22:27.480Z,11.16
2022-10-05T01:24:44.734Z,11.25
2022-10-05T01:26:56.094Z,11.14
2022-10-05T01:29:16.624Z,11.15
2022-10-05T01:31:24.785Z,11.12
2022-10-05T01:33:36.168Z,11.09
2022-10-05T01:36:03.564Z,11.02
2022-10-05T01:38:37.102Z,10.97
2022-10-05T01:41:13.672Z,11.04
2022-10-05T01:43:36.479Z,11.08
2022-10-05T01:45:53.888Z,11.14
2022-10-05T01:48:10.076Z,11.12
2022-10-05T01:51:27.552Z,10.99
2022-10-05T01:53:48.091Z,10.89
2022-10-05T01:56:01.774Z,10.86
2022-10-05T01:58:35.189Z,10.84
2022-10-05T02:01:12.593Z,10.77
2022-10-05T02:03:24.761Z,10.77
2022-10-05T02:05:36.239Z,10.84
2022-10-05T02:07:43.006Z,10.86
2022-10-05T02:09:54.586Z,10.75
2022-10-05T02:12:03.781Z,10.76
2022-10-05T02:14:12.767Z,10.75
2022-10-05T02:16:22.306Z,10.76
2022-10-05T02:18:33.940Z,10.83
2022-10-05T02:20:41.531Z,10.96
2022-10-05T02:22:56.355Z,10.95
2022-10-05T02:25:03.696Z,10.98
2022-10-05T02:27:09.030Z,11.00
2022-10-05T02:29:16.769Z,11.08
2022-10-05T02:31:30.157Z,11.14
2022-10-05T02:34:16.770Z,11.18
2022-10-05T02:36:32.301Z,11.16
2022-10-05T02:38:51.929Z,11.02
2022-10-05T02:41:14.966Z,11.05
2022-10-05T02:43:23.649Z,11.02
2022-10-05T02:45:37.954Z,11.02
2022-10-05T02:48:00.640Z,11.05
2022-10-05T02:50:15.776Z,11.13
2022-10-05T02:52:45.213Z,11.01
2022-10-05T02:55:18.235Z,10.87
2022-10-05T02:57:38.801Z,10.88
2022-10-05T02:59:48.869Z,10.91
2022-10-05T03:01:54.758Z,10.96
2022-10-05T03:04:15.229Z,10.95
2022-10-05T03:06:23.709Z,11.01
2022-10-05T03:08:47.510Z,11.08
2022-10-05T03:11:26.825Z,10.97
2022-10-05T03:13:48.422Z,10.94
2022-10-05T03:15:55.079Z,10.96
2022-10-05T03:18:08.101Z,10.87
2022-10-05T03:20:22.104Z,10.86
2022-10-05T03:22:34.042Z,10.83
2022-10-05T03:24:41.889Z,10.88
2022-10-05T03:27:04.450Z,10.84
2022-10-05T03:29:25.037Z,10.71
2022-10-05T03:31:42.164Z,10.64
2022-10-05T03:33:56.245Z,10.62
2022-10-05T03:36:05.406Z,10.66
2022-10-05T03:38:10.346Z,10.67
2022-10-05T03:40:28.660Z,10.62
2022-10-05T03:42:57.165Z,10.56
2022-10-05T03:45:26.817Z,10.61
2022-10-05T03:47:52.381Z,10.59
2022-10-05T03:50:00.431Z,10.54
2022-10-05T03:52:10.676Z,10.50
2022-10-05T03:54:23.719Z,10.49
2022-10-05T03:56:41.022Z,10.40
2022-10-05T03:58:53.121Z,10.47
2022-10-05T04:01:00.856Z,10.39
2022-10-05T04:03:35.543Z,10.44
2022-10-05T04:05:52.220Z,10.48
2022-10-05T04:07:59.461Z,10.45
2022-10-05T04:10:09.357Z,10.43
2022-10-05T04:12:38.980Z,10.39
2022-10-05T04:14:55.434Z,10.36
2022-10-05T04:17:05.085Z,10.39
2022-10-05T04:19:16.925Z,10.35
2022-10-05T04:21:28.696Z,10.41
2022-10-05T04:23:43.961Z,10.50
2022-10-05T04:26:02.329Z,10.50
2022-10-05T04:28:32.375Z,10.53
2022-10-05T04:30:42.193Z,10.56
2022-10-05T04:32:50.204Z,10.57
2022-10-05T04:34:54.571Z,10.49
2022-10-05T04:37:03.119Z,10.39
2022-10-05T04:39:21.366Z,10.45
2022-10-05T04:41:24.515Z,10.55
2022-10-05T04:44:05.679Z,10.51
2022-10-05T04:46:19.274Z,10.43
2022-10-05T04:48:32.953Z,10.43
2022-10-05T04:50:55.461Z,10.40
2022-10-05T04:53:28.200Z,10.42
2022-10-05T04:55:45.533Z,10.40
2022-10-05T04:58:13.480Z,10.38
2022-10-05T05:00:23.080Z,10.40
2022-10-05T05:02:41.248Z,10.43
2022-10-05T05:05:06.100Z,10.48
2022-10-05T05:07:49.366Z,10.44
2022-10-05T05:10:05.486Z,10.46
2022-10-05T05:12:38.703Z,10.49
2022-10-05T05:14:43.681Z,10.51
2022-10-05T05:17:08.538Z,10.52
2022-10-05T05:19:17.301Z,10.53
2022-10-05T05:21:41.138Z,10.58
2022-10-05T05:24:05.677Z,10.54
2022-10-05T05:26:22.651Z,10.57
2022-10-05T05:28:47.221Z,10.72
2022-10-05T05:30:57.637Z,10.84
2022-10-05T05:33:16.739Z,10.84
2022-10-05T05:35:40.059Z,10.93
2022-10-05T05:38:11.918Z,11.07
2022-10-05T05:40:24.065Z,11.15
2022-10-05T05:42:49.761Z,11.18
2022-10-05T05:44:58.738Z,11.24
2022-10-05T05:47:11.089Z,11.35
2022-10-05T05:49:36.122Z,11.40
2022-10-05T05:51:46.005Z,11.50
2022-10-05T05:53:55.997Z,11.76
2022-10-05T06:00:15.518Z,12.13
2022-10-05T06:03:05.311Z,12.15
2022-10-05T06:05:32.169Z,12.03
2022-10-05T06:07:38.100Z,12.26
2022-10-05T06:10:07.921Z,12.25
2022-10-05T06:12:27.239Z,12.37
2022-10-05T06:14:35.342Z,12.32
2022-10-05T06:16:47.421Z,12.46
2022-10-05T06:18:59.279Z,12.54
2022-10-05T06:21:24.575Z,12.57
2022-10-05T06:23:35.925Z,12.73
2022-10-05T06:26:10.915Z,12.80
2022-10-05T06:28:19.858Z,12.99
2022-10-05T06:30:30.955Z,13.08
2022-10-05T06:32:33.603Z,13.22
2022-10-05T06:35:11.860Z,13.18
2022-10-05T06:37:34.151Z,13.34
2022-10-05T06:40:00.795Z,13.45
2022-10-05T06:42:13.631Z,13.63
2022-10-05T06:44:53.608Z,13.76
2022-10-05T06:47:29.928Z,13.82
2022-10-05T06:49:58.033Z,13.98
2022-10-05T06:52:25.645Z,13.94
2022-10-05T06:55:00.790Z,14.06
2022-10-05T06:57:08.738Z,14.08
2022-10-05T06:59:40.383Z,14.02
2022-10-05T07:01:51.740Z,14.07
2022-10-05T07:03:57.566Z,14.18
2022-10-05T07:06:07.372Z,14.11
2022-10-05T07:08:19.743Z,14.14
2022-10-05T07:10:30.670Z,14.33
2022-10-05T07:12:47.199Z,14.27
2022-10-05T07:14:52.275Z,14.36
2022-10-05T07:17:20.519Z,14.37
2022-10-05T07:19:35.222Z,14.49
2022-10-05T07:21:45.935Z,14.64
2022-10-05T07:24:13.224Z,14.73
2022-10-05T07:26:27.584Z,14.90
2022-10-05T07:28:48.098Z,14.96
2022-10-05T07:31:00.616Z,15.01
2022-10-05T07:33:18.157Z,15.11
2022-10-05T07:35:54.450Z,15.16
2022-10-05T07:38:02.052Z,15.19
2022-10-05T07:40:11.230Z,15.32
2022-10-05T07:42:52.223Z,15.58
2022-10-05T07:45:18.301Z,15.69
2022-10-05T07:47:32.054Z,15.77
2022-10-05T07:49:42.016Z,15.89
2022-10-05T07:51:58.620Z,15.93
2022-10-05T07:54:25.863Z,16.03
2022-10-05T07:56:50.625Z,16.24
2022-10-05T07:59:07.912Z,16.44
2022-10-05T08:01:25.040Z,16.55
2022-10-05T08:03:52.499Z,16.63
2022-10-05T08:05:55.298Z,16.75
2022-10-05T08:08:24.935Z,16.79
2022-10-05T08:10:38.499Z,16.94
2022-10-05T08:13:04.523Z,17.08
2022-10-05T08:15:20.892Z,17.25
2022-10-05T08:18:00.638Z,17.29
2022-10-05T08:20:06.496Z,17.45
2022-10-05T08:22:19.798Z,17.45
2022-10-05T08:24:38.676Z,17.45
2022-10-05T08:27:06.555Z,17.58
2022-10-05T08:29:30.063Z,17.71
2022-10-05T08:31:33.853Z,17.79
2022-10-05T08:34:00.600Z,17.76
2022-10-05T08:36:14.621Z,17.88
2022-10-05T08:38:20.233Z,17.97
2022-10-05T08:41:01.226Z,18.08
2022-10-05T08:43:35.045Z,18.12
2022-10-05T08:46:08.442Z,18.15
2022-10-05T08:48:36.416Z,18.16
2022-10-05T08:50:38.262Z,18.27
2022-10-05T08:52:43.367Z,18.31
2022-10-05T08:55:10.382Z,18.34
2022-10-05T08:57:15.477Z,18.32
2022-10-05T08:59:44.674Z,18.38
2022-10-05T09:02:28.349Z,18.39
2022-10-05T09:04:48.302Z,18.44
2022-10-05T09:07:01.450Z,18.57
2022-10-05T09:09:18.689Z,18.69
2022-10-05T09:11:26.959Z,18.79
2022-10-05T09:13:40.819Z,18.79
2022-10-05T09:16:02.996Z,18.81
2022-10-05T09:18:42.469Z,18.83
2022-10-05T09:20:55.348Z,18.92
2022-10-05T09:23:00.231Z,18.98
2022-10-05T09:25:21.277Z,18.92
2022-10-05T09:27:36.534Z,19.03
2022-10-05T09:30:20.297Z,19.03
2022-10-05T09:32:59.318Z,19.12
2022-10-05T09:35:23.065Z,19.27
2022-10-05T09:37:50.257Z,19.32
2022-10-05T09:40:35.139Z,19.33
2022-10-05T09:43:17.745Z,19.48
2022-10-05T09:45:38.378Z,19.54
2022-10-05T09:47:50.682Z,19.59
2022-10-05T09:50:18.849Z,19.65
2022-10-05T09:53:11.025Z,19.72
2022-10-05T09:55:46.935Z,19.89
2022-10-05T09:57:55.573Z,19.92
2022-10-05T09:59:57.581Z,19.96
2022-10-05T10:02:14.156Z,20.01
2022-10-05T10:04:29.759Z,20.05
2022-10-05T10:07:17.100Z,20.05
2022-10-05T10:09:28.393Z,20.11
2022-10-05T10:11:42.025Z,20.12
2022-10-05T10:13:47.076Z,20.16
2022-10-05T10:15:57.800Z,20.15
2022-10-05T10:18:38.162Z,20.21
2022-10-05T10:20:48.984Z,20.28
2022-10-05T10:22:59.933Z,20.36
2022-10-05T10:25:43.538Z,20.39
2022-10-05T10:27:51.702Z,20.44
2022-10-05T10:30:12.315Z,20.49
2022-10-05T10:32:17.430Z,20.53
2022-10-05T10:35:10.146Z,20.59
2022-10-05T10:37:21.103Z,20.55
2022-10-05T10:39:45.299Z,20.61
2022-10-05T10:42:02.682Z,20.63
2022-10-05T10:44:52.651Z,20.71
2022-10-05T10:47:22.392Z,20.80
2022-10-05T10:49:59.500Z,20.82
2022-10-05T10:52:01.516Z,20.87
2022-10-05T10:54:22.312Z,20.87
2022-10-05T10:56:54.703Z,20.92
2022-10-05T10:59:05.478Z,20.97
2022-10-05T11:01:29.296Z,21.02
2022-10-05T11:03:43.283Z,21.01
2022-10-05T11:06:01.562Z,20.97
2022-10-05T11:08:12.751Z,20.98
2022-10-05T11:10:31.701Z,20.88
2022-10-05T11:12:51.641Z,20.90
2022-10-05T11:15:16.905Z,20.85
2022-10-05T11:17:18.923Z,20.91
2022-10-05T11:20:20.853Z,20.92
2022-10-05T11:22:32.741Z,21.04
2022-10-05T11:25:07.197Z,21.04
2022-10-05T11:27:15.083Z,21.15
2022-10-05T11:29:23.068Z,21.22
2022-10-05T11:32:04.146Z,21.22
2022-10-05T11:34:41.474Z,21.25
2022-10-05T11:37:10.944Z,21.29
2022-10-05T11:39:44.765Z,21.35
2022-10-05T11:42:11.696Z,21.41
2022-10-05T11:44:31.990Z,21.49
2022-10-05T11:46:49.671Z,21.47
2022-10-05T11:49:34.452Z,21.50
2022-10-05T11:51:59.238Z,21.55
2022-10-05T11:54:10.334Z,21.52
2022-10-05T11:56:34.107Z,21.55
2022-10-05T11:58:59.752Z,21.63
2022-10-05T12:01:20.293Z,21.60
2022-10-05T12:03:42.675Z,21.63
2022-10-05T12:06:13.970Z,21.67
2022-10-05T12:08:24.584Z,21.65
2022-10-05T12:10:52.566Z,21.61
2022-10-05T12:12:57.774Z,21.68
2022-10-05T12:15:35.273Z,21.63
2022-10-05T12:18:06.931Z,21.64
2022-10-05T12:20:35.843Z,21.65
2022-10-05T12:22:49.785Z,21.66
2022-10-05T12:25:11.886Z,21.68
2022-10-05T12:27:27.140Z,21.67
2022-10-05T12:29:51.932Z,21.63
2022-10-05T12:32:33.793Z,21.61
2022-10-05T12:35:01.441Z,21.59
2022-10-05T12:37:29.094Z,21.56
2022-10-05T12:39:49.975Z,21.54
2022-10-05T12:42:05.866Z,21.53
2022-10-05T12:44:21.562Z,21.58
2022-10-05T12:46:44.349Z,21.61
2022-10-05T12:49:05.004Z,21.61
2022-10-05T12:51:20.216Z,21.58
2022-10-05T12:53:28.829Z,21.57
2022-10-05T12:55:59.912Z,21.47
2022-10-05T12:58:23.118Z,21.45
2022-10-05T13:00:32.671Z,21.49
2022-10-05T13:02:44.099Z,21.49
2022-10-05T13:05:12.035Z,21.46
2022-10-05T13:07:48.591Z,21.44
2022-10-05T13:10:09.229Z,21.43
2022-10-05T13:12:26.726Z,21.43
2022-10-05T13:14:31.783Z,21.53
2022-10-05T13:16:55.295Z,21.36
2022-10-05T13:19:16.179Z,21.28
2022-10-05T13:21:30.336Z,21.26
2022-10-05T13:23:57.549Z,21.16
2022-10-05T13:26:08.940Z,21.14
2022-10-05T13:28:18.059Z,21.09
2022-10-05T13:30:22.108Z,21.10
2022-10-05T13:32:41.238Z,21.06
2022-10-05T13:34:50.691Z,21.07
2022-10-05T13:37:17.548Z,21.03
2022-10-05T13:39:47.177Z,21.04
2022-10-05T13:42:15.522Z,21.09
2022-10-05T13:44:34.138Z,20.96
2022-10-05T13:46:54.090Z,21.03
2022-10-05T13:49:18.278Z,21.05
2022-10-05T13:51:38.752Z,21.07
2022-10-05T13:54:14.823Z,21.18
2022-10-05T13:56:34.713Z,21.20
2022-10-05T13:58:45.234Z,21.26
2022-10-05T14:00:53.107Z,21.19
2022-10-05T14:02:57.729Z,21.23
2022-10-05T14:05:02.848Z,21.13
2022-10-05T14:07:34.167Z,21.04
2022-10-05T14:09:36.220Z,20.99
2022-10-05T14:11:51.924Z,20.93
2022-10-05T14:14:01.603Z,20.98
2022-10-05T14:16:22.400Z,21.00
2022-10-05T14:18:27.598Z,21.02
2022-10-05T14:20:34.325Z,21.04
2022-10-05T14:22:42.364Z,21.03
2022-10-05T14:24:52.538Z,21.00
2022-10-05T14:26:56.656Z,21.02
2022-10-05T14:29:17.877Z,21.00
2022-10-05T14:31:32.129Z,20.94
2022-10-05T14:33:36.074Z,20.99
2022-10-05T14:35:44.058Z,20.94
2022-10-05T14:37:58.386Z,20.90
2022-10-05T14:40:22.439Z,20.87
2022-10-05T14:42:29.145Z,20.93
2022-10-05T14:46:36.760Z,20.88
2022-10-05T14:48:43.388Z,20.82
2022-10-05T14:50:55.403Z,20.78
2022-10-05T14:53:10.502Z,20.77
2022-10-05T14:55:57.110Z,20.72
2022-10-05T14:58:02.406Z,20.73
2022-10-05T15:00:13.442Z,20.68
2022-10-05T15:02:48.206Z,20.64
2022-10-05T15:05:25.515Z,20.62
2022-10-05T15:07:39.083Z,20.65
2022-10-05T15:10:16.051Z,20.61
2022-10-05T15:12:39.012Z,20.55
2022-10-05T15:14:45.050Z,20.56
2022-10-05T15:16:51.741Z,20.54
2022-10-05T15:19:17.171Z,20.50
2022-10-05T15:21:31.974Z,20.47
2022-10-05T15:23:34.043Z,20.45
2022-10-05T15:25:43.224Z,20.46
2022-10-05T15:28:11.532Z,20.34
2022-10-05T15:30:21.435Z,20.34
2022-10-05T15:32:51.863Z,20.28
2022-10-05T15:35:09.613Z,20.26
2022-10-05T15:37:37.131Z,20.21
2022-10-05T15:39:50.294Z,20.16
2022-10-05T15:42:02.086Z,20.10
2022-10-05T15:44:36.487Z,20.13
2022-10-05T15:46:44.306Z,20.04
2022-10-05T15:48:56.062Z,19.97
2022-10-05T15:51:15.385Z,19.91
2022-10-05T15:53:38.627Z,19.85
2022-10-05T15:55:53.411Z,19.78
2022-10-05T15:58:21.122Z,19.74
2022-10-05T16:00:25.563Z,19.71
2022-10-05T16:03:05.463Z,19.58
2022-10-05T16:05:56.400Z,19.49
2022-10-05T16:08:16.950Z,19.47
2022-10-05T16:10:21.894Z,19.41
2022-10-05T16:12:26.862Z,19.36
2022-10-05T16:14:42.602Z,19.26
2022-10-05T16:17:22.005Z,19.17
2022-10-05T16:19:39.470Z,19.07
2022-10-05T16:22:11.143Z,18.99
2022-10-05T16:24:47.596Z,18.90
2022-10-05T16:27:00.329Z,18.85
2022-10-05T16:29:17.835Z,18.84
2022-10-05T16:31:31.351Z,18.74
2022-10-05T16:34:00.778Z,18.70
2022-10-05T16:36:32.170Z,18.60
2022-10-05T16:38:38.615Z,18.58
2022-10-05T16:41:18.199Z,18.46
2022-10-05T16:43:46.530Z,18.44
2022-10-05T16:46:30.066Z,18.28
2022-10-05T16:49:12.353Z,18.27
2022-10-05T16:51:52.222Z,18.22
2022-10-05T16:54:00.145Z,18.18
2022-10-05T16:56:07.045Z,18.11
2022-10-05T16:58:25.620Z,18.00
2022-10-05T17:00:45.683Z,17.93
2022-10-05T17:03:05.860Z,17.92
2022-10-05T17:05:26.371Z,17.86
2022-10-05T17:07:43.722Z,17.74
2022-10-05T17:10:08.410Z,17.69
2022-10-05T17:12:53.269Z,17.63
2022-10-05T17:15:15.001Z,17.66
2022-10-05T17:18:01.481Z,17.56
2022-10-05T17:20:21.200Z,17.50
2022-10-05T17:22:39.867Z,17.46
2022-10-05T17:24:56.904Z,17.47
2022-10-05T17:27:15.983Z,17.38
2022-10-05T17:29:47.670Z,17.15
2022-10-05T17:32:11.391Z,17.05
2022-10-05T17:34:16.621Z,17.05
2022-10-05T17:36:18.997Z,17.03
2022-10-05T17:38:23.829Z,17.00
2022-10-05T17:40:28.819Z,16.92
2022-10-05T17:42:34.259Z,17.00
2022-10-05T17:44:36.038Z,16.98
2022-10-05T17:46:39.367Z,17.01
2022-10-05T17:48:44.155Z,16.97
2022-10-05T17:51:07.269Z,16.98
2022-10-05T17:53:52.954Z,16.90
2022-10-05T17:56:05.311Z,16.90
2022-10-05T17:59:00.063Z,16.86
2022-10-05T18:01:01.783Z,16.85
2022-10-05T18:03:37.961Z,16.76
2022-10-05T18:05:40.324Z,16.77
2022-10-05T18:07:48.862Z,16.65
2022-10-05T18:10:00.391Z,16.43
2022-10-05T18:12:18.064Z,16.43
2022-10-05T18:14:55.000Z,16.46
2022-10-05T18:17:04.038Z,16.46
2022-10-05T18:19:16.716Z,16.46
2022-10-05T18:22:17.561Z,16.41
2022-10-05T18:24:32.495Z,16.44
2022-10-05T18:26:53.152Z,16.48
2022-10-05T18:29:36.735Z,16.40
2022-10-05T18:32:00.523Z,16.41
2022-10-05T18:34:14.050Z,16.46
2022-10-05T18:36:16.281Z,16.43
2022-10-05T18:38:49.226Z,16.37
2022-10-05T18:41:12.516Z,16.35
2022-10-05T18:43:33.083Z,16.31
2022-10-05T18:45:53.270Z,16.29
2022-10-05T18:48:31.261Z,16.27
2022-10-05T18:50:53.849Z,16.23
2022-10-05T18:53:28.526Z,16.19
2022-10-05T18:55:36.321Z,16.24
2022-10-05T18:58:00.374Z,16.16
2022-10-05T19:00:15.354Z,16.15
2022-10-05T19:02:30.301Z,16.14
2022-10-05T19:05:09.184Z,16.08
2022-10-05T19:07:26.927Z,16.07
2022-10-05T19:09:44.087Z,16.08
2022-10-05T19:12:12.241Z,15.99
2022-10-05T19:15:01.030Z,16.02
2022-10-05T19:17:30.967Z,15.98
2022-10-05T19:19:51.418Z,15.92
2022-10-05T19:22:13.317Z,15.91
2022-10-05T19:24:41.841Z,16.00
2022-10-05T19:27:14.433Z,15.93
2022-10-05T19:29:57.669Z,15.84
2022-10-05T19:32:15.942Z,15.81
2022-10-05T19:34:42.384Z,15.81
2022-10-05T19:37:14.909Z,15.77
2022-10-05T19:39:33.769Z,15.71
2022-10-05T19:41:46.725Z,15.71
2022-10-05T19:44:27.423Z,15.63
2022-10-05T19:46:55.489Z,15.59
2022-10-05T19:49:00.327Z,15.63
2022-10-05T19:51:11.484Z,15.59
2022-10-05T19:53:45.949Z,15.53
2022-10-05T19:55:48.179Z,15.58
2022-10-05T19:58:01.505Z,15.50
2022-10-05T20:00:04.653Z,15.51
2022-10-05T20:02:06.891Z,15.53
2022-10-05T20:04:10.757Z,15.53
2022-10-05T20:06:13.608Z,15.53
2022-10-05T20:08:17.823Z,15.50
2022-10-05T20:10:29.597Z,15.42
2022-10-05T20:13:03.992Z,15.28
2022-10-05T20:15:27.216Z,15.40
2022-10-05T20:17:51.930Z,15.40
2022-10-05T20:20:12.577Z,15.38
2022-10-05T20:22:34.643Z,15.24
2022-10-05T20:24:50.037Z,15.24
2022-10-05T20:27:09.556Z,15.25
2022-10-05T20:29:12.616Z,15.16
2022-10-05T20:31:14.823Z,15.11
2022-10-05T20:33:17.007Z,15.13
2022-10-05T20:35:23.902Z,15.14
2022-10-05T20:37:26.372Z,15.15
2022-10-05T20:39:28.499Z,15.14
2022-10-05T20:41:30.722Z,15.14
2022-10-05T20:43:32.741Z,15.13
2022-10-05T20:45:43.435Z,15.03
2022-10-05T20:47:47.477Z,14.97
2022-10-05T20:49:49.821Z,15.02
2022-10-05T20:51:55.820Z,15.07
2022-10-05T20:53:58.774Z,15.14
2022-10-05T20:56:02.695Z,15.19
2022-10-05T20:58:04.851Z,15.06
2022-10-05T21:00:08.154Z,15.08
2022-10-05T21:02:10.624Z,15.00
2022-10-05T21:04:12.900Z,15.03
2022-10-05T21:06:15.056Z,14.97
2022-10-05T21:08:17.972Z,14.95
2022-10-05T21:10:20.070Z,14.93
2022-10-05T21:12:22.693Z,14.83
2022-10-05T21:14:33.069Z,14.84
2022-10-05T21:16:38.245Z,14.84
2022-10-05T21:18:40.985Z,14.86
2022-10-05T21:20:43.118Z,14.75
2022-10-05T21:22:45.173Z,14.75
2022-10-05T21:24:47.429Z,14.73
2022-10-05T21:26:52.462Z,14.72
2022-10-05T21:28:54.757Z,14.76
2022-10-05T21:30:56.936Z,14.78
2022-10-05T21:32:59.009Z,14.79
2022-10-05T21:35:02.267Z,14.81
2022-10-05T21:37:05.001Z,14.78
2022-10-05T21:39:07.267Z,14.78
2022-10-05T21:41:09.358Z,14.74
2022-10-05T21:43:13.502Z,14.75
2022-10-05T21:45:15.626Z,14.73
2022-10-05T21:47:17.848Z,14.75
2022-10-05T21:49:20.229Z,14.74
2022-10-05T21:51:25.397Z,14.64
2022-10-05T21:53:32.278Z,14.59
2022-10-05T21:55:36.110Z,14.46
2022-10-05T21:57:38.950Z,14.47
2022-10-05T21:59:41.417Z,14.36
2022-10-05T22:01:43.670Z,14.42
2022-10-05T22:03:45.983Z,14.39
2022-10-05T22:06:49.029Z,14.12
2022-10-05T22:08:51.503Z,14.18
2022-10-05T22:10:56.833Z,14.14
2022-10-05T22:13:04.935Z,14.15
2022-10-05T22:15:07.627Z,14.16
2022-10-05T22:17:22.504Z,14.04
2022-10-05T22:19:25.307Z,14.05
2022-10-05T22:21:27.327Z,14.04
2022-10-05T22:23:29.489Z,14.09
2022-10-05T22:25:33.971Z,14.04
2022-10-05T22:27:36.605Z,14.04
2022-10-05T22:29:39.139Z,14.01
2022-10-05T22:31:41.492Z,14.00
2022-10-05T22:33:44.726Z,14.00
2022-10-05T22:35:49.648Z,13.95
2022-10-05T22:37:51.694Z,13.92
2022-10-05T22:39:55.369Z,13.95
2022-10-05T22:41:58.052Z,13.94
2022-10-05T22:44:03.197Z,13.92
2022-10-05T22:46:13.041Z,13.89
2022-10-05T22:48:16.279Z,13.92
2022-10-05T22:50:18.401Z,13.84
2022-10-05T22:52:21.437Z,13.82
2022-10-05T22:54:27.451Z,13.84
2022-10-05T22:56:31.518Z,13.78
2022-10-05T22:58:33.904Z,13.74
2022-10-05T23:00:59.179Z,13.78
2022-10-05T23:02:59.802Z,13.80
2022-10-05T23:05:01.934Z,13.83
2022-10-05T23:07:04.576Z,13.89
2022-10-05T23:09:06.724Z,13.93
2022-10-05T23:11:12.932Z,14.01
2022-10-05T23:13:16.204Z,14.04
2022-10-05T23:15:18.555Z,14.08
2022-10-05T23:17:21.281Z,14.02
2022-10-05T23:19:24.061Z,14.13
2022-10-05T23:21:29.136Z,14.16
2022-10-05T23:23:31.203Z,14.20
2022-10-05T23:25:33.507Z,14.23
2022-10-05T23:27:39.967Z,14.24
2022-10-05T23:29:42.125Z,14.29
2022-10-05T23:31:44.144Z,14.30
2022-10-05T23:33:46.499Z,14.31
2022-10-05T23:35:48.488Z,14.29
2022-10-05T23:37:51.152Z,14.34
2022-10-05T23:39:56.007Z,14.32
2022-10-05T23:42:00.105Z,14.36
2022-10-05T23:44:02.057Z,14.34
2022-10-05T23:46:06.651Z,14.30
2022-10-05T23:48:08.703Z,14.34
2022-10-05T23:50:10.937Z,14.35
2022-10-05T23:52:13.402Z,14.27
2022-10-05T23:54:16.549Z,14.24
2022-10-05T23:56:19.774Z,14.26
2022-10-05T23:58:23.203Z,14.28
